Patriot — WDG9802 — position and weather

sailwx.info

Track history (hours):
 
Tides and Currents Weather Stations Pressure Air Temp Water Temp Dewpoint Dewpoint Depression Visibility Wind Speed Wind Dir Waves Ship Positions

Patriot

Owner: Marine Towing of Tampa LLC, Tampa, FL. More information available from US FCC via Universal Licensing System and Coast Guard Vessel Documentation Center.

Last reported at 2017-Dec-11 17:01 UTC. Time now 2017-Dec-11 22:55 UTC.
Position N 27°54' W 082°26'.

Length 28 m; draft 17 m.

Type: Tug. MMSI: 367591250.

Date/timePositionNaut miles runAvg speedWind from/ knotsBaromVisibWave heightAir tempDewpointWater temp
2017-Dec-11 17:01N 27°54' W 082°26'0 0.0
2017-Dec-11 16:31N 27°54' W 082°26'0 0.0
2017-Dec-11 16:01N 27°54' W 082°26'1 2.3
2017-Dec-11 15:31N 27°55' W 082°27'0 0.0
2017-Dec-11 15:01N 27°55' W 082°27'3 5.1
2017-Dec-11 14:30N 27°53' W 082°27'3 5.2
2017-Dec-11 14:01N 27°51' W 082°24'0 0.8
2017-Dec-11 13:28N 27°51' W 082°24'3 6.1
2017-Dec-11 13:01N 27°52' W 082°27'3 6.2
2017-Dec-11 12:31N 27°55' W 082°25'0 0.1
2017-Dec-11 12:01N 27°55' W 082°25'2 3.2
2017-Dec-11 11:31N 27°54' W 082°26'510.6
2017-Dec-11 11:01N 27°49' W 082°27'2 3.4
2017-Dec-11 10:27N 27°48' W 082°25'2 4.6
2017-Dec-11 10:00N 27°49' W 082°27'611.5
2017-Dec-11 09:31N 27°55' W 082°26'1 2.8
2017-Dec-11 09:01N 27°56' W 082°26'0 0.0
2017-Dec-11 08:31N 27°56' W 082°26'0 0.0
2017-Dec-11 08:01N 27°56' W 082°26'0 0.0
2017-Dec-11 07:31N 27°56' W 082°26'0 0.0
2017-Dec-11 07:01N 27°56' W 082°26'0 0.0
2017-Dec-11 06:31N 27°56' W 082°26'0 0.0
2017-Dec-11 06:01N 27°56' W 082°26'0 0.0
2017-Dec-11 05:31N 27°56' W 082°26'0 0.0
2017-Dec-11 05:01N 27°56' W 082°26'0 0.0
2017-Dec-11 04:31N 27°56' W 082°26'0 0.0
2017-Dec-11 04:01N 27°56' W 082°26'0 0.0
2017-Dec-11 03:30N 27°56' W 082°26'0 0.0
2017-Dec-11 03:01N 27°56' W 082°26'0 0.0
2017-Dec-11 02:31N 27°56' W 082°26'0 0.0
2017-Dec-11 02:01N 27°56' W 082°26'0 0.0
2017-Dec-11 01:30N 27°56' W 082°26'0 0.0
2017-Dec-11 01:01N 27°56' W 082°26'0 0.0
2017-Dec-11 00:30N 27°56' W 082°26'0 0.0
2017-Dec-11 00:01N 27°56' W 082°26'0 0.0
2017-Dec-10 23:31N 27°56' W 082°26'0 0.0
2017-Dec-10 23:01N 27°56' W 082°26'0 0.0
2017-Dec-10 22:30N 27°56' W 082°26'0 0.0
2017-Dec-10 22:01N 27°56' W 082°26'0 0.0
2017-Dec-10 21:31N 27°56' W 082°26'0 0.0
2017-Dec-10 21:01N 27°56' W 082°26'0 0.0
2017-Dec-10 20:31N 27°56' W 082°26'0 0.0
2017-Dec-10 20:01N 27°56' W 082°26'0 0.0
2017-Dec-10 19:31N 27°56' W 082°26'1 1.8
2017-Dec-10 19:01N 27°55' W 082°26'1 1.8
2017-Dec-10 18:31N 27°55' W 082°27'0 0.3
2017-Dec-10 18:01N 27°55' W 082°27'1 2.1
2017-Dec-10 17:31N 27°54' W 082°26'1 1.3
2017-Dec-10 17:01N 27°54' W 082°25'1 1.1
2017-Dec-10 16:31N 27°54' W 082°26'0 0.0
2017-Dec-10 16:01N 27°54' W 082°26'0 0.0
2017-Dec-10 15:31N 27°54' W 082°26'1 1.6
2017-Dec-10 15:01N 27°54' W 082°26'611.2
2017-Dec-10 14:30N 27°48' W 082°28'611.1
2017-Dec-10 14:00N 27°47' W 082°34'4 8.9
2017-Dec-10 13:30N 27°52' W 082°33'0 0.5
2017-Dec-10 12:59N 27°52' W 082°33'0 0.1
2017-Dec-10 12:30N 27°52' W 082°33'0 0.2
2017-Dec-10 12:01N 27°52' W 082°33'0 0.0
2017-Dec-10 11:31N 27°52' W 082°33'0 0.0
2017-Dec-10 11:01N 27°52' W 082°33'0 0.0
2017-Dec-10 10:31N 27°52' W 082°33'2 4.8
2017-Dec-10 10:01N 27°50' W 082°34'5 9.1
2017-Dec-10 09:30N 27°46' W 082°31'4 1.6
2017-Dec-10 06:40N 27°42' W 082°33'212.1
2017-Dec-10 06:31N 27°43' W 082°32'510.8
2017-Dec-10 06:01N 27°48' W 082°29'510.6
2017-Dec-10 05:31N 27°53' W 082°27'2 3.8
2017-Dec-10 05:01N 27°54' W 082°26'0 0.0
2017-Dec-10 04:31N 27°54' W 082°26'0 0.0
2017-Dec-10 04:01N 27°54' W 082°26'0 0.0
2017-Dec-10 03:31N 27°54' W 082°26'0 0.0
2017-Dec-10 03:01N 27°54' W 082°26'0 0.0
2017-Dec-10 02:31N 27°54' W 082°26'1 2.4
2017-Dec-10 02:01N 27°55' W 082°27'0 0.2
2017-Dec-10 01:31N 27°55' W 082°27'1 2.0
2017-Dec-10 01:00N 27°54' W 082°26'1 1.7
2017-Dec-10 00:31N 27°53' W 082°26'1 2.6
2017-Dec-10 00:01N 27°54' W 082°26'0 0.0
2017-Dec-09 23:30N 27°54' W 082°26'1 1.2
2017-Dec-09 23:01N 27°54' W 082°25'0 0.1
2017-Dec-09 22:30N 27°54' W 082°25'1 1.4
2017-Dec-09 22:01N 27°54' W 082°26'2 3.1
2017-Dec-09 21:30N 27°53' W 082°26'2 4.9
2017-Dec-09 21:00N 27°50' W 082°27'3 6.9
2017-Dec-09 20:30N 27°48' W 082°29'4 7.8
2017-Dec-09 19:57N 27°47' W 082°34'4 8.4
2017-Dec-09 19:31N 27°51' W 082°34'1 1.7
2017-Dec-09 19:00N 27°52' W 082°33'0 0.0
2017-Dec-09 18:31N 27°52' W 082°33'1 2.1
2017-Dec-09 18:00N 27°51' W 082°34'4 7.6
2017-Dec-09 17:31N 27°47' W 082°33'5 9.5
2017-Dec-09 17:00N 27°48' W 082°27'5 9.2
2017-Dec-09 16:31N 27°53' W 082°26'2 3.5
2017-Dec-09 16:01N 27°55' W 082°26'2 3.3
2017-Dec-09 15:31N 27°53' W 082°26'0 0.3
2017-Dec-09 15:01N 27°53' W 082°26'3 6.2
2017-Dec-09 14:31N 27°56' W 082°26'0 0.0
2017-Dec-09 14:01N 27°56' W 082°26'0 0.0
2017-Dec-09 13:31N 27°56' W 082°26'0 0.0
2017-Dec-09 13:01N 27°56' W 082°26'0 0.0
2017-Dec-09 12:31N 27°56' W 082°26'0 0.0
2017-Dec-09 12:01N 27°56' W 082°26'0 0.0
2017-Dec-09 11:31N 27°56' W 082°26'0 0.0
2017-Dec-09 11:01N 27°56' W 082°26'0 0.0
2017-Dec-09 10:31N 27°56' W 082°26'0 0.0
2017-Dec-09 10:01N 27°56' W 082°26'0 0.0
2017-Dec-09 09:30N 27°56' W 082°26'0 0.0
2017-Dec-09 09:01N 27°56' W 082°26'0 0.0
2017-Dec-09 08:31N 27°56' W 082°26'0 0.0
2017-Dec-09 08:01N 27°56' W 082°26'0 0.0
2017-Dec-09 07:31N 27°56' W 082°26'0 0.0
2017-Dec-09 07:00N 27°56' W 082°26'0 0.0
2017-Dec-09 06:31N 27°56' W 082°26'0 0.0
2017-Dec-09 06:01N 27°56' W 082°26'0 0.0
2017-Dec-09 05:31N 27°56' W 082°26'0 0.0
2017-Dec-09 05:01N 27°56' W 082°26'0 0.0
2017-Dec-09 04:31N 27°56' W 082°26'0 0.0
2017-Dec-09 04:01N 27°56' W 082°26'0 0.0
2017-Dec-09 03:31N 27°56' W 082°26'0 0.0
2017-Dec-09 03:01N 27°56' W 082°26'0 0.0
2017-Dec-09 02:31N 27°56' W 082°26'0 0.0
2017-Dec-09 02:00N 27°56' W 082°26'0 0.0
2017-Dec-09 01:31N 27°56' W 082°26'0 0.0
2017-Dec-09 01:01N 27°56' W 082°26'2 3.5
2017-Dec-09 00:31N 27°54' W 082°26'1 2.8
2017-Dec-09 00:01N 27°56' W 082°27'1 2.6
2017-Dec-08 23:30N 27°57' W 082°27'0 0.1
2017-Dec-08 23:01N 27°57' W 082°27'0 0.1
2017-Dec-08 22:31N 27°57' W 082°27'0 0.0
2017-Dec-08 22:00N 27°57' W 082°27'0 0.0
2017-Dec-08 21:31N 27°57' W 082°27'3 5.3
2017-Dec-08 21:01N 27°54' W 082°26'611.0
2017-Dec-08 20:31N 27°49' W 082°27'611.9
2017-Dec-08 20:00N 27°47' W 082°34'4 8.6
2017-Dec-08 19:29N 27°52' W 082°33'0 0.2
2017-Dec-08 19:01N 27°52' W 082°33'2 3.7
2017-Dec-08 18:29N 27°50' W 082°34'3 5.3
2017-Dec-08 17:59N 27°47' W 082°33'4 9.2
2017-Dec-08 17:31N 27°48' W 082°29'510.6
2017-Dec-08 17:01N 27°53' W 082°26'2 3.9
2017-Dec-08 16:31N 27°55' W 082°27'0 0.2
2017-Dec-08 16:00N 27°55' W 082°27'1 1.9
2017-Dec-08 15:30N 27°54' W 082°26'0 0.0
2017-Dec-08 15:01N 27°54' W 082°26'0 0.0
2017-Dec-08 14:31N 27°54' W 082°26'1 1.5
2017-Dec-08 14:01N 27°54' W 082°26'510.6
2017-Dec-08 13:31N 27°49' W 082°26'2 3.1
2017-Dec-08 12:59N 27°48' W 082°25'0 0.4
2017-Dec-08 12:30N 27°48' W 082°25'2 3.5
2017-Dec-08 12:00N 27°49' W 082°27'0 0.9
2017-Dec-08 11:30N 27°49' W 082°26'2 0.9
2017-Dec-08 09:53N 27°48' W 082°25'2 4.6
2017-Dec-08 09:31N 27°49' W 082°26'2 3.5
2017-Dec-08 09:01N 27°48' W 082°25'1 1.6
2017-Dec-08 08:30N 27°48' W 082°25'5 9.3
2017-Dec-08 08:01N 27°53' W 082°26'2 3.1
2017-Dec-08 07:31N 27°55' W 082°26'0 0.1
2017-Dec-08 07:01N 27°55' W 082°26'1 1.3
2017-Dec-08 06:31N 27°54' W 082°26'0 0.2
2017-Dec-08 06:01N 27°54' W 082°26'1 1.4
2017-Dec-08 05:31N 27°54' W 082°26'1 1.5
2017-Dec-08 05:00N 27°55' W 082°26'0 1.0
2017-Dec-08 04:30N 27°56' W 082°26'1 1.1
2017-Dec-08 04:00N 27°56' W 082°26'0 0.0
2017-Dec-08 03:31N 27°56' W 082°26'0 0.0
2017-Dec-08 03:01N 27°56' W 082°26'0 0.0
2017-Dec-08 02:31N 27°56' W 082°26'2 3.7
2017-Dec-08 02:01N 27°54' W 082°25'0 0.0
2017-Dec-08 01:31N 27°54' W 082°25'0 0.4
2017-Dec-08 01:01N 27°54' W 082°26'0 0.5
2017-Dec-08 00:31N 27°54' W 082°26'2 3.1
2017-Dec-08 00:01N 27°56' W 082°26'1 1.3
2017-Dec-07 23:31N 27°55' W 082°26'1 2.2
2017-Dec-07 23:01N 27°54' W 082°26'1 2.0
2017-Dec-07 22:30N 27°53' W 082°26'1 2.3
2017-Dec-07 22:01N 27°54' W 082°26'2 4.7
2017-Dec-07 21:31N 27°57' W 082°27'0 0.0
2017-Dec-07 21:01N 27°57' W 082°27'0 0.0
2017-Dec-07 20:31N 27°57' W 082°27'1 1.1
2017-Dec-07 20:01N 27°56' W 082°27'2 4.5
2017-Dec-07 19:30N 27°54' W 082°26'5 9.1
2017-Dec-07 19:00N 27°49' W 082°27'611.8
2017-Dec-07 18:30N 27°45' W 082°31'4 2.2
2017-Dec-07 16:40N 27°42' W 082°33'213.7
2017-Dec-07 16:30N 27°44' W 082°32'611.7
2017-Dec-07 16:00N 27°48' W 082°28'3 0.4
2017-Dec-07 07:35N 27°48' W 082°25'0 0.7
2017-Dec-07 07:30N 27°48' W 082°24'0 0.6
2017-Dec-07 07:00N 27°48' W 082°25'2 4.4
2017-Dec-07 06:30N 27°49' W 082°27'2 4.9
2017-Dec-07 06:00N 27°48' W 082°25'0 0.2
2017-Dec-07 05:29N 27°48' W 082°24'3 5.4
2017-Dec-07 05:00N 27°48' W 082°27'611.1
2017-Dec-07 04:30N 27°44' W 082°32'  
2017-Dec-04 10:30N 27°56' W 082°26'0 0.0
2017-Dec-04 10:00N 27°56' W 082°26'0 0.0
2017-Dec-04 09:30N 27°56' W 082°26'0 0.0
2017-Dec-04 09:00N 27°56' W 082°26'0 0.0
2017-Dec-04 08:30N 27°56' W 082°26'0 0.0
2017-Dec-04 08:00N 27°56' W 082°26'0 0.0
2017-Dec-04 07:30N 27°56' W 082°26'0 0.0
2017-Dec-04 07:00N 27°56' W 082°26'0 0.0
2017-Dec-04 06:30N 27°56' W 082°26'0 0.0
2017-Dec-04 06:00N 27°56' W 082°26'0 0.0
2017-Dec-04 05:30N 27°56' W 082°26'0 0.0
2017-Dec-04 05:00N 27°56' W 082°26'0 0.0
2017-Dec-04 04:30N 27°56' W 082°26'0 0.0
2017-Dec-04 04:00N 27°56' W 082°26'0 0.0
2017-Dec-04 03:30N 27°56' W 082°26'0 0.0
2017-Dec-04 03:00N 27°56' W 082°26'0 0.0
2017-Dec-04 02:30N 27°56' W 082°26'0 0.0
2017-Dec-04 02:00N 27°56' W 082°26'0 0.0
2017-Dec-04 01:30N 27°56' W 082°26'0 0.0
2017-Dec-04 01:00N 27°56' W 082°26'0 0.0
2017-Dec-04 00:30N 27°56' W 082°26'0 0.0
2017-Dec-04 00:00N 27°56' W 082°26'0 0.0
2017-Dec-03 23:30N 27°56' W 082°26'0 0.0
2017-Dec-03 23:00N 27°56' W 082°26'0 0.0
2017-Dec-03 22:30N 27°56' W 082°26'0 0.0
2017-Dec-03 22:00N 27°56' W 082°26'0 0.0
2017-Dec-03 21:30N 27°56' W 082°26'0 0.0
2017-Dec-03 21:00N 27°56' W 082°26'0 0.0
2017-Dec-03 20:30N 27°56' W 082°26'0 0.0
2017-Dec-03 20:00N 27°56' W 082°26'0 0.0
2017-Dec-03 19:30N 27°56' W 082°26'0 0.0
2017-Dec-03 19:00N 27°56' W 082°26'0 0.8
2017-Dec-03 18:30N 27°56' W 082°26'0 0.1
2017-Dec-03 18:00N 27°56' W 082°26'1 1.7
2017-Dec-03 17:31N 27°55' W 082°26'2 3.6
2017-Dec-03 17:00N 27°53' W 082°26'4 8.8
2017-Dec-03 16:30N 27°49' W 082°27'5 9.6
2017-Dec-03 16:00N 27°46' W 082°31'8 4.1
2017-Dec-03 14:02N 27°38' W 082°34'0 0.0
2017-Dec-03 13:59N 27°38' W 082°34'0 0.0
2017-Dec-03 12:20N 27°38' W 082°34'0 0.0
2017-Dec-03 11:55N 27°38' W 082°34'0 0.0
2017-Dec-03 11:30N 27°38' W 082°34'0 0.0
2017-Dec-03 10:53N 27°38' W 082°34'0 0.0
2017-Dec-03 10:30N 27°38' W 082°34'0 0.1
2017-Dec-03 07:51N 27°38' W 082°34'4 3.7
2017-Dec-03 06:51N 27°42' W 082°33'411.8
2017-Dec-03 06:30N 27°45' W 082°31'5 9.7
2017-Dec-03 06:00N 27°49' W 082°27'510.8
2017-Dec-03 05:30N 27°54' W 082°26'2 4.2
2017-Dec-03 05:00N 27°56' W 082°26'0 0.0
2017-Dec-03 04:30N 27°56' W 082°26'0 0.0
2017-Dec-03 04:00N 27°56' W 082°26'0 0.0
2017-Dec-03 03:30N 27°56' W 082°26'0 0.0
2017-Dec-03 03:00N 27°56' W 082°26'0 0.0
2017-Dec-03 02:30N 27°56' W 082°26'0 0.0
2017-Dec-03 02:00N 27°56' W 082°26'0 0.0
2017-Dec-03 01:30N 27°56' W 082°26'0 0.0
2017-Dec-03 01:00N 27°56' W 082°26'0 0.0
2017-Dec-03 00:30N 27°56' W 082°26'0 0.0
2017-Dec-03 00:00N 27°56' W 082°26'0 0.0
2017-Dec-02 23:30N 27°56' W 082°26'0 0.1
2017-Dec-02 23:00N 27°56' W 082°26'0 0.7
2017-Dec-02 22:30N 27°56' W 082°26'0 0.8
2017-Dec-02 22:00N 27°56' W 082°26'0 0.0
2017-Dec-02 21:30N 27°56' W 082°26'0 0.0
2017-Dec-02 21:00N 27°56' W 082°26'0 0.0
2017-Dec-02 20:30N 27°56' W 082°26'0 0.0
2017-Dec-02 20:00N 27°56' W 082°26'0 0.0
2017-Dec-02 19:30N 27°56' W 082°26'2 3.9
2017-Dec-02 19:00N 27°54' W 082°25'0 0.4
2017-Dec-02 18:30N 27°54' W 082°25'2 4.0
2017-Dec-02 18:01N 27°56' W 082°26'0 0.0
2017-Dec-02 17:30N 27°56' W 082°26'0 0.0
2017-Dec-02 17:00N 27°56' W 082°26'0 0.0
2017-Dec-02 16:30N 27°56' W 082°26'0 0.0
2017-Dec-02 16:00N 27°56' W 082°26'0 0.0
2017-Dec-02 15:30N 27°56' W 082°26'0 0.0
2017-Dec-02 15:00N 27°56' W 082°26'0 0.0
2017-Dec-02 14:30N 27°56' W 082°26'0 0.0
2017-Dec-02 14:00N 27°56' W 082°26'0 0.0
2017-Dec-02 13:30N 27°56' W 082°26'0 0.0
2017-Dec-02 13:00N 27°56' W 082°26'0 0.0
2017-Dec-02 12:30N 27°56' W 082°26'0 0.0
2017-Dec-02 12:00N 27°56' W 082°26'0 0.0
2017-Dec-02 11:30N 27°56' W 082°26'0 0.0
2017-Dec-02 11:00N 27°56' W 082°26'0 0.0
2017-Dec-02 10:30N 27°56' W 082°26'0 0.0
2017-Dec-02 10:00N 27°56' W 082°26'0 0.0
2017-Dec-02 09:30N 27°56' W 082°26'0 0.0
2017-Dec-02 09:00N 27°56' W 082°26'0 0.0
2017-Dec-02 08:30N 27°56' W 082°26'1 2.4
2017-Dec-02 08:00N 27°55' W 082°27'0 0.0
2017-Dec-02 07:30N 27°55' W 082°27'2 3.9
2017-Dec-02 07:00N 27°53' W 082°26'0 0.0
2017-Dec-02 06:30N 27°53' W 082°26'2 3.1
2017-Dec-02 06:00N 27°55' W 082°26'0 0.0
2017-Dec-02 05:30N 27°54' W 082°26'0 0.0
2017-Dec-02 05:00N 27°54' W 082°26'2 3.1
2017-Dec-02 04:30N 27°53' W 082°26'4 8.2
2017-Dec-02 04:00N 27°49' W 082°27'5 9.0
2017-Dec-02 03:30N 27°47' W 082°31'12 2.6
2017-Dec-01 22:55N 27°37' W 082°40'610.1
2017-Dec-01 22:18N 27°41' W 082°34'310.3
2017-Dec-01 22:00N 27°43' W 082°32'5 9.5
2017-Dec-01 21:30N 27°48' W 082°30'5 9.1
2017-Dec-01 21:00N 27°51' W 082°27'4 8.8
2017-Dec-01 20:30N 27°56' W 082°26'0 0.7
2017-Dec-01 20:00N 27°56' W 082°26'0 0.0
2017-Dec-01 19:30N 27°56' W 082°26'0 0.2
2017-Dec-01 19:00N 27°56' W 082°26'2 3.6
2017-Dec-01 18:30N 27°54' W 082°25'0 0.0
2017-Dec-01 18:00N 27°54' W 082°25'2 3.8
2017-Dec-01 17:30N 27°56' W 082°26'  
Track history (hours):
 
Tides and Currents Weather Stations Pressure Air Temp Water Temp Dewpoint Dewpoint Depression Visibility Wind Speed Wind Dir Waves Ship Positions

Patriot

Owner: Marine Towing of Tampa LLC, Tampa, FL. More information available from US FCC via Universal Licensing System and Coast Guard Vessel Documentation Center.

Last reported at 2017-Dec-11 17:01 UTC. Time now 2017-Dec-11 22:55 UTC.
Position N 27°54' W 082°26'.

Length 28 m; draft 17 m.

Type: Tug. MMSI: 367591250.

Date/timePositionNaut miles runAvg speedWind from/ knotsBaromVisibWave heightAir tempDewpointWater temp
2017-Dec-11 17:01N 27°54' W 082°26'0 0.0
2017-Dec-11 16:31N 27°54' W 082°26'0 0.0
2017-Dec-11 16:01N 27°54' W 082°26'1 2.3
2017-Dec-11 15:31N 27°55' W 082°27'0 0.0
2017-Dec-11 15:01N 27°55' W 082°27'3 5.1
2017-Dec-11 14:30N 27°53' W 082°27'3 5.2
2017-Dec-11 14:01N 27°51' W 082°24'0 0.8
2017-Dec-11 13:28N 27°51' W 082°24'3 6.1
2017-Dec-11 13:01N 27°52' W 082°27'3 6.2
2017-Dec-11 12:31N 27°55' W 082°25'0 0.1
2017-Dec-11 12:01N 27°55' W 082°25'2 3.2
2017-Dec-11 11:31N 27°54' W 082°26'510.6
2017-Dec-11 11:01N 27°49' W 082°27'2 3.4
2017-Dec-11 10:27N 27°48' W 082°25'2 4.6
2017-Dec-11 10:00N 27°49' W 082°27'611.5
2017-Dec-11 09:31N 27°55' W 082°26'1 2.8
2017-Dec-11 09:01N 27°56' W 082°26'0 0.0
2017-Dec-11 08:31N 27°56' W 082°26'0 0.0
2017-Dec-11 08:01N 27°56' W 082°26'0 0.0
2017-Dec-11 07:31N 27°56' W 082°26'0 0.0
2017-Dec-11 07:01N 27°56' W 082°26'0 0.0
2017-Dec-11 06:31N 27°56' W 082°26'0 0.0
2017-Dec-11 06:01N 27°56' W 082°26'0 0.0
2017-Dec-11 05:31N 27°56' W 082°26'0 0.0
2017-Dec-11 05:01N 27°56' W 082°26'0 0.0
2017-Dec-11 04:31N 27°56' W 082°26'0 0.0
2017-Dec-11 04:01N 27°56' W 082°26'0 0.0
2017-Dec-11 03:30N 27°56' W 082°26'0 0.0
2017-Dec-11 03:01N 27°56' W 082°26'0 0.0
2017-Dec-11 02:31N 27°56' W 082°26'0 0.0
2017-Dec-11 02:01N 27°56' W 082°26'0 0.0
2017-Dec-11 01:30N 27°56' W 082°26'0 0.0
2017-Dec-11 01:01N 27°56' W 082°26'0 0.0
2017-Dec-11 00:30N 27°56' W 082°26'0 0.0
2017-Dec-11 00:01N 27°56' W 082°26'0 0.0
2017-Dec-10 23:31N 27°56' W 082°26'0 0.0
2017-Dec-10 23:01N 27°56' W 082°26'0 0.0
2017-Dec-10 22:30N 27°56' W 082°26'0 0.0
2017-Dec-10 22:01N 27°56' W 082°26'0 0.0
2017-Dec-10 21:31N 27°56' W 082°26'0 0.0
2017-Dec-10 21:01N 27°56' W 082°26'0 0.0
2017-Dec-10 20:31N 27°56' W 082°26'0 0.0
2017-Dec-10 20:01N 27°56' W 082°26'0 0.0
2017-Dec-10 19:31N 27°56' W 082°26'1 1.8
2017-Dec-10 19:01N 27°55' W 082°26'1 1.8
2017-Dec-10 18:31N 27°55' W 082°27'0 0.3
2017-Dec-10 18:01N 27°55' W 082°27'1 2.1
2017-Dec-10 17:31N 27°54' W 082°26'1 1.3
2017-Dec-10 17:01N 27°54' W 082°25'1 1.1
2017-Dec-10 16:31N 27°54' W 082°26'0 0.0
2017-Dec-10 16:01N 27°54' W 082°26'0 0.0
2017-Dec-10 15:31N 27°54' W 082°26'1 1.6
2017-Dec-10 15:01N 27°54' W 082°26'611.2
2017-Dec-10 14:30N 27°48' W 082°28'611.1
2017-Dec-10 14:00N 27°47' W 082°34'4 8.9
2017-Dec-10 13:30N 27°52' W 082°33'0 0.5
2017-Dec-10 12:59N 27°52' W 082°33'0 0.1
2017-Dec-10 12:30N 27°52' W 082°33'0 0.2
2017-Dec-10 12:01N 27°52' W 082°33'0 0.0
2017-Dec-10 11:31N 27°52' W 082°33'0 0.0
2017-Dec-10 11:01N 27°52' W 082°33'0 0.0
2017-Dec-10 10:31N 27°52' W 082°33'2 4.8
2017-Dec-10 10:01N 27°50' W 082°34'5 9.1
2017-Dec-10 09:30N 27°46' W 082°31'4 1.6
2017-Dec-10 06:40N 27°42' W 082°33'212.1
2017-Dec-10 06:31N 27°43' W 082°32'510.8
2017-Dec-10 06:01N 27°48' W 082°29'510.6
2017-Dec-10 05:31N 27°53' W 082°27'2 3.8
2017-Dec-10 05:01N 27°54' W 082°26'0 0.0
2017-Dec-10 04:31N 27°54' W 082°26'0 0.0
2017-Dec-10 04:01N 27°54' W 082°26'0 0.0
2017-Dec-10 03:31N 27°54' W 082°26'0 0.0
2017-Dec-10 03:01N 27°54' W 082°26'0 0.0
2017-Dec-10 02:31N 27°54' W 082°26'1 2.4
2017-Dec-10 02:01N 27°55' W 082°27'0 0.2
2017-Dec-10 01:31N 27°55' W 082°27'1 2.0
2017-Dec-10 01:00N 27°54' W 082°26'1 1.7
2017-Dec-10 00:31N 27°53' W 082°26'1 2.6
2017-Dec-10 00:01N 27°54' W 082°26'0 0.0
2017-Dec-09 23:30N 27°54' W 082°26'1 1.2
2017-Dec-09 23:01N 27°54' W 082°25'0 0.1
2017-Dec-09 22:30N 27°54' W 082°25'1 1.4
2017-Dec-09 22:01N 27°54' W 082°26'2 3.1
2017-Dec-09 21:30N 27°53' W 082°26'2 4.9
2017-Dec-09 21:00N 27°50' W 082°27'3 6.9
2017-Dec-09 20:30N 27°48' W 082°29'4 7.8
2017-Dec-09 19:57N 27°47' W 082°34'4 8.4
2017-Dec-09 19:31N 27°51' W 082°34'1 1.7
2017-Dec-09 19:00N 27°52' W 082°33'0 0.0
2017-Dec-09 18:31N 27°52' W 082°33'1 2.1
2017-Dec-09 18:00N 27°51' W 082°34'4 7.6
2017-Dec-09 17:31N 27°47' W 082°33'5 9.5
2017-Dec-09 17:00N 27°48' W 082°27'5 9.2
2017-Dec-09 16:31N 27°53' W 082°26'2 3.5
2017-Dec-09 16:01N 27°55' W 082°26'2 3.3
2017-Dec-09 15:31N 27°53' W 082°26'0 0.3
2017-Dec-09 15:01N 27°53' W 082°26'3 6.2
2017-Dec-09 14:31N 27°56' W 082°26'0 0.0
2017-Dec-09 14:01N 27°56' W 082°26'0 0.0
2017-Dec-09 13:31N 27°56' W 082°26'0 0.0
2017-Dec-09 13:01N 27°56' W 082°26'0 0.0
2017-Dec-09 12:31N 27°56' W 082°26'0 0.0
2017-Dec-09 12:01N 27°56' W 082°26'0 0.0
2017-Dec-09 11:31N 27°56' W 082°26'0 0.0
2017-Dec-09 11:01N 27°56' W 082°26'0 0.0
2017-Dec-09 10:31N 27°56' W 082°26'0 0.0
2017-Dec-09 10:01N 27°56' W 082°26'0 0.0
2017-Dec-09 09:30N 27°56' W 082°26'0 0.0
2017-Dec-09 09:01N 27°56' W 082°26'0 0.0
2017-Dec-09 08:31N 27°56' W 082°26'0 0.0
2017-Dec-09 08:01N 27°56' W 082°26'0 0.0
2017-Dec-09 07:31N 27°56' W 082°26'0 0.0
2017-Dec-09 07:00N 27°56' W 082°26'0 0.0
2017-Dec-09 06:31N 27°56' W 082°26'0 0.0
2017-Dec-09 06:01N 27°56' W 082°26'0 0.0
2017-Dec-09 05:31N 27°56' W 082°26'0 0.0
2017-Dec-09 05:01N 27°56' W 082°26'0 0.0
2017-Dec-09 04:31N 27°56' W 082°26'0 0.0
2017-Dec-09 04:01N 27°56' W 082°26'0 0.0
2017-Dec-09 03:31N 27°56' W 082°26'0 0.0
2017-Dec-09 03:01N 27°56' W 082°26'0 0.0
2017-Dec-09 02:31N 27°56' W 082°26'0 0.0
2017-Dec-09 02:00N 27°56' W 082°26'0 0.0
2017-Dec-09 01:31N 27°56' W 082°26'0 0.0
2017-Dec-09 01:01N 27°56' W 082°26'2 3.5
2017-Dec-09 00:31N 27°54' W 082°26'1 2.8
2017-Dec-09 00:01N 27°56' W 082°27'1 2.6
2017-Dec-08 23:30N 27°57' W 082°27'0 0.1
2017-Dec-08 23:01N 27°57' W 082°27'0 0.1
2017-Dec-08 22:31N 27°57' W 082°27'0 0.0
2017-Dec-08 22:00N 27°57' W 082°27'0 0.0
2017-Dec-08 21:31N 27°57' W 082°27'3 5.3
2017-Dec-08 21:01N 27°54' W 082°26'611.0
2017-Dec-08 20:31N 27°49' W 082°27'611.9
2017-Dec-08 20:00N 27°47' W 082°34'4 8.6
2017-Dec-08 19:29N 27°52' W 082°33'0 0.2
2017-Dec-08 19:01N 27°52' W 082°33'2 3.7
2017-Dec-08 18:29N 27°50' W 082°34'3 5.3
2017-Dec-08 17:59N 27°47' W 082°33'4 9.2
2017-Dec-08 17:31N 27°48' W 082°29'510.6
2017-Dec-08 17:01N 27°53' W 082°26'2 3.9
2017-Dec-08 16:31N 27°55' W 082°27'0 0.2
2017-Dec-08 16:00N 27°55' W 082°27'1 1.9
2017-Dec-08 15:30N 27°54' W 082°26'0 0.0
2017-Dec-08 15:01N 27°54' W 082°26'0 0.0
2017-Dec-08 14:31N 27°54' W 082°26'1 1.5
2017-Dec-08 14:01N 27°54' W 082°26'510.6
2017-Dec-08 13:31N 27°49' W 082°26'2 3.1
2017-Dec-08 12:59N 27°48' W 082°25'0 0.4
2017-Dec-08 12:30N 27°48' W 082°25'2 3.5
2017-Dec-08 12:00N 27°49' W 082°27'0 0.9
2017-Dec-08 11:30N 27°49' W 082°26'2 0.9
2017-Dec-08 09:53N 27°48' W 082°25'2 4.6
2017-Dec-08 09:31N 27°49' W 082°26'2 3.5
2017-Dec-08 09:01N 27°48' W 082°25'1 1.6
2017-Dec-08 08:30N 27°48' W 082°25'5 9.3
2017-Dec-08 08:01N 27°53' W 082°26'2 3.1
2017-Dec-08 07:31N 27°55' W 082°26'0 0.1
2017-Dec-08 07:01N 27°55' W 082°26'1 1.3
2017-Dec-08 06:31N 27°54' W 082°26'0 0.2
2017-Dec-08 06:01N 27°54' W 082°26'1 1.4
2017-Dec-08 05:31N 27°54' W 082°26'1 1.5
2017-Dec-08 05:00N 27°55' W 082°26'0 1.0
2017-Dec-08 04:30N 27°56' W 082°26'1 1.1
2017-Dec-08 04:00N 27°56' W 082°26'0 0.0
2017-Dec-08 03:31N 27°56' W 082°26'0 0.0
2017-Dec-08 03:01N 27°56' W 082°26'0 0.0
2017-Dec-08 02:31N 27°56' W 082°26'2 3.7
2017-Dec-08 02:01N 27°54' W 082°25'0 0.0
2017-Dec-08 01:31N 27°54' W 082°25'0 0.4
2017-Dec-08 01:01N 27°54' W 082°26'0 0.5
2017-Dec-08 00:31N 27°54' W 082°26'2 3.1
2017-Dec-08 00:01N 27°56' W 082°26'1 1.3
2017-Dec-07 23:31N 27°55' W 082°26'1 2.2
2017-Dec-07 23:01N 27°54' W 082°26'1 2.0
2017-Dec-07 22:30N 27°53' W 082°26'1 2.3
2017-Dec-07 22:01N 27°54' W 082°26'2 4.7
2017-Dec-07 21:31N 27°57' W 082°27'0 0.0
2017-Dec-07 21:01N 27°57' W 082°27'0 0.0
2017-Dec-07 20:31N 27°57' W 082°27'1 1.1
2017-Dec-07 20:01N 27°56' W 082°27'2 4.5
2017-Dec-07 19:30N 27°54' W 082°26'5 9.1
2017-Dec-07 19:00N 27°49' W 082°27'611.8
2017-Dec-07 18:30N 27°45' W 082°31'4 2.2
2017-Dec-07 16:40N 27°42' W 082°33'213.7
2017-Dec-07 16:30N 27°44' W 082°32'611.7
2017-Dec-07 16:00N 27°48' W 082°28'3 0.4
2017-Dec-07 07:35N 27°48' W 082°25'0 0.7
2017-Dec-07 07:30N 27°48' W 082°24'0 0.6
2017-Dec-07 07:00N 27°48' W 082°25'2 4.4
2017-Dec-07 06:30N 27°49' W 082°27'2 4.9
2017-Dec-07 06:00N 27°48' W 082°25'0 0.2
2017-Dec-07 05:29N 27°48' W 082°24'3 5.4
2017-Dec-07 05:00N 27°48' W 082°27'611.1
2017-Dec-07 04:30N 27°44' W 082°32'  
2017-Dec-04 10:30N 27°56' W 082°26'0 0.0
2017-Dec-04 10:00N 27°56' W 082°26'0 0.0
2017-Dec-04 09:30N 27°56' W 082°26'0 0.0
2017-Dec-04 09:00N 27°56' W 082°26'0 0.0
2017-Dec-04 08:30N 27°56' W 082°26'0 0.0
2017-Dec-04 08:00N 27°56' W 082°26'0 0.0
2017-Dec-04 07:30N 27°56' W 082°26'0 0.0
2017-Dec-04 07:00N 27°56' W 082°26'0 0.0
2017-Dec-04 06:30N 27°56' W 082°26'0 0.0
2017-Dec-04 06:00N 27°56' W 082°26'0 0.0
2017-Dec-04 05:30N 27°56' W 082°26'0 0.0
2017-Dec-04 05:00N 27°56' W 082°26'0 0.0
2017-Dec-04 04:30N 27°56' W 082°26'0 0.0
2017-Dec-04 04:00N 27°56' W 082°26'0 0.0
2017-Dec-04 03:30N 27°56' W 082°26'0 0.0
2017-Dec-04 03:00N 27°56' W 082°26'0 0.0
2017-Dec-04 02:30N 27°56' W 082°26'0 0.0
2017-Dec-04 02:00N 27°56' W 082°26'0 0.0
2017-Dec-04 01:30N 27°56' W 082°26'0 0.0
2017-Dec-04 01:00N 27°56' W 082°26'0 0.0
2017-Dec-04 00:30N 27°56' W 082°26'0 0.0
2017-Dec-04 00:00N 27°56' W 082°26'0 0.0
2017-Dec-03 23:30N 27°56' W 082°26'0 0.0
2017-Dec-03 23:00N 27°56' W 082°26'0 0.0
2017-Dec-03 22:30N 27°56' W 082°26'0 0.0
2017-Dec-03 22:00N 27°56' W 082°26'0 0.0
2017-Dec-03 21:30N 27°56' W 082°26'0 0.0
2017-Dec-03 21:00N 27°56' W 082°26'0 0.0
2017-Dec-03 20:30N 27°56' W 082°26'0 0.0
2017-Dec-03 20:00N 27°56' W 082°26'0 0.0
2017-Dec-03 19:30N 27°56' W 082°26'0 0.0
2017-Dec-03 19:00N 27°56' W 082°26'0 0.8
2017-Dec-03 18:30N 27°56' W 082°26'0 0.1
2017-Dec-03 18:00N 27°56' W 082°26'1 1.7
2017-Dec-03 17:31N 27°55' W 082°26'2 3.6
2017-Dec-03 17:00N 27°53' W 082°26'4 8.8
2017-Dec-03 16:30N 27°49' W 082°27'5 9.6
2017-Dec-03 16:00N 27°46' W 082°31'8 4.1
2017-Dec-03 14:02N 27°38' W 082°34'0 0.0
2017-Dec-03 13:59N 27°38' W 082°34'0 0.0
2017-Dec-03 12:20N 27°38' W 082°34'0 0.0
2017-Dec-03 11:55N 27°38' W 082°34'0 0.0
2017-Dec-03 11:30N 27°38' W 082°34'0 0.0
2017-Dec-03 10:53N 27°38' W 082°34'0 0.0
2017-Dec-03 10:30N 27°38' W 082°34'0 0.1
2017-Dec-03 07:51N 27°38' W 082°34'4 3.7
2017-Dec-03 06:51N 27°42' W 082°33'411.8
2017-Dec-03 06:30N 27°45' W 082°31'5 9.7
2017-Dec-03 06:00N 27°49' W 082°27'510.8
2017-Dec-03 05:30N 27°54' W 082°26'2 4.2
2017-Dec-03 05:00N 27°56' W 082°26'0 0.0
2017-Dec-03 04:30N 27°56' W 082°26'0 0.0
2017-Dec-03 04:00N 27°56' W 082°26'0 0.0
2017-Dec-03 03:30N 27°56' W 082°26'0 0.0
2017-Dec-03 03:00N 27°56' W 082°26'0 0.0
2017-Dec-03 02:30N 27°56' W 082°26'0 0.0
2017-Dec-03 02:00N 27°56' W 082°26'0 0.0
2017-Dec-03 01:30N 27°56' W 082°26'0 0.0
2017-Dec-03 01:00N 27°56' W 082°26'0 0.0
2017-Dec-03 00:30N 27°56' W 082°26'0 0.0
2017-Dec-03 00:00N 27°56' W 082°26'0 0.0
2017-Dec-02 23:30N 27°56' W 082°26'0 0.1
2017-Dec-02 23:00N 27°56' W 082°26'0 0.7
2017-Dec-02 22:30N 27°56' W 082°26'0 0.8
2017-Dec-02 22:00N 27°56' W 082°26'0 0.0
2017-Dec-02 21:30N 27°56' W 082°26'0 0.0
2017-Dec-02 21:00N 27°56' W 082°26'0 0.0
2017-Dec-02 20:30N 27°56' W 082°26'0 0.0
2017-Dec-02 20:00N 27°56' W 082°26'0 0.0
2017-Dec-02 19:30N 27°56' W 082°26'2 3.9
2017-Dec-02 19:00N 27°54' W 082°25'0 0.4
2017-Dec-02 18:30N 27°54' W 082°25'2 4.0
2017-Dec-02 18:01N 27°56' W 082°26'0 0.0
2017-Dec-02 17:30N 27°56' W 082°26'0 0.0
2017-Dec-02 17:00N 27°56' W 082°26'0 0.0
2017-Dec-02 16:30N 27°56' W 082°26'0 0.0
2017-Dec-02 16:00N 27°56' W 082°26'0 0.0
2017-Dec-02 15:30N 27°56' W 082°26'0 0.0
2017-Dec-02 15:00N 27°56' W 082°26'0 0.0
2017-Dec-02 14:30N 27°56' W 082°26'0 0.0
2017-Dec-02 14:00N 27°56' W 082°26'0 0.0
2017-Dec-02 13:30N 27°56' W 082°26'0 0.0
2017-Dec-02 13:00N 27°56' W 082°26'0 0.0
2017-Dec-02 12:30N 27°56' W 082°26'0 0.0
2017-Dec-02 12:00N 27°56' W 082°26'0 0.0
2017-Dec-02 11:30N 27°56' W 082°26'0 0.0
2017-Dec-02 11:00N 27°56' W 082°26'0 0.0
2017-Dec-02 10:30N 27°56' W 082°26'0 0.0
2017-Dec-02 10:00N 27°56' W 082°26'0 0.0
2017-Dec-02 09:30N 27°56' W 082°26'0 0.0
2017-Dec-02 09:00N 27°56' W 082°26'0 0.0
2017-Dec-02 08:30N 27°56' W 082°26'1 2.4
2017-Dec-02 08:00N 27°55' W 082°27'0 0.0
2017-Dec-02 07:30N 27°55' W 082°27'2 3.9
2017-Dec-02 07:00N 27°53' W 082°26'0 0.0
2017-Dec-02 06:30N 27°53' W 082°26'2 3.1
2017-Dec-02 06:00N 27°55' W 082°26'0 0.0
2017-Dec-02 05:30N 27°54' W 082°26'0 0.0
2017-Dec-02 05:00N 27°54' W 082°26'2 3.1
2017-Dec-02 04:30N 27°53' W 082°26'4 8.2
2017-Dec-02 04:00N 27°49' W 082°27'5 9.0
2017-Dec-02 03:30N 27°47' W 082°31'12 2.6
2017-Dec-01 22:55N 27°37' W 082°40'610.1
2017-Dec-01 22:18N 27°41' W 082°34'310.3
2017-Dec-01 22:00N 27°43' W 082°32'5 9.5
2017-Dec-01 21:30N 27°48' W 082°30'5 9.1
2017-Dec-01 21:00N 27°51' W 082°27'4 8.8
2017-Dec-01 20:30N 27°56' W 082°26'0 0.7
2017-Dec-01 20:00N 27°56' W 082°26'0 0.0
2017-Dec-01 19:30N 27°56' W 082°26'0 0.2
2017-Dec-01 19:00N 27°56' W 082°26'2 3.6
2017-Dec-01 18:30N 27°54' W 082°25'0 0.0
2017-Dec-01 18:00N 27°54' W 082°25'2 3.8
2017-Dec-01 17:30N 27°56' W 082°26'  

Dump ship's entire track history